sensor_id;sensor_type;location;lat;lon;timestamp;P1;durP1;ratioP1;P2;durP2;ratioP2
2049;SDS011;8478;49.208;8.806;2023-04-03T00:01:13;4.27;;;3.83;;
2049;SDS011;8478;49.208;8.806;2023-04-03T00:03:40;3.83;;;3.63;;
2049;SDS011;8478;49.208;8.806;2023-04-03T00:06:09;3.67;;;3.47;;
2049;SDS011;8478;49.208;8.806;2023-04-03T00:08:36;3.40;;;3.10;;
2049;SDS011;8478;49.208;8.806;2023-04-03T00:11:03;3.10;;;2.90;;
2049;SDS011;8478;49.208;8.806;2023-04-03T00:13:29;3.40;;;3.20;;
2049;SDS011;8478;49.208;8.806;2023-04-03T00:15:56;3.80;;;3.30;;
2049;SDS011;8478;49.208;8.806;2023-04-03T00:18:21;6.57;;;3.63;;
2049;SDS011;8478;49.208;8.806;2023-04-03T00:20:48;3.27;;;3.07;;
2049;SDS011;8478;49.208;8.806;2023-04-03T00:23:14;3.93;;;3.37;;
2049;SDS011;8478;49.208;8.806;2023-04-03T00:25:40;3.80;;;3.50;;
2049;SDS011;8478;49.208;8.806;2023-04-03T00:28:06;3.47;;;3.27;;
2049;SDS011;8478;49.208;8.806;2023-04-03T00:30:31;4.07;;;3.53;;
2049;SDS011;8478;49.208;8.806;2023-04-03T00:32:57;3.80;;;3.50;;
2049;SDS011;8478;49.208;8.806;2023-04-03T00:35:24;4.20;;;3.90;;
2049;SDS011;8478;49.208;8.806;2023-04-03T00:37:53;3.83;;;3.33;;
2049;SDS011;8478;49.208;8.806;2023-04-03T00:40:20;3.50;;;3.30;;
2049;SDS011;8478;49.208;8.806;2023-04-03T00:42:49;3.20;;;3.00;;
2049;SDS011;8478;49.208;8.806;2023-04-03T00:45:54;3.83;;;3.53;;
2049;SDS011;8478;49.208;8.806;2023-04-03T00:48:26;2.90;;;2.80;;
2049;SDS011;8478;49.208;8.806;2023-04-03T00:51:01;3.70;;;3.40;;
2049;SDS011;8478;49.208;8.806;2023-04-03T00:53:30;3.67;;;3.47;;
2049;SDS011;8478;49.208;8.806;2023-04-03T00:56:05;3.47;;;3.27;;
2049;SDS011;8478;49.208;8.806;2023-04-03T00:58:35;3.30;;;3.10;;
2049;SDS011;8478;49.208;8.806;2023-04-03T01:01:05;3.47;;;3.27;;
2049;SDS011;8478;49.208;8.806;2023-04-03T01:03:33;3.73;;;3.43;;
2049;SDS011;8478;49.208;8.806;2023-04-03T01:06:00;3.67;;;3.43;;
2049;SDS011;8478;49.208;8.806;2023-04-03T01:08:25;3.67;;;3.47;;
2049;SDS011;8478;49.208;8.806;2023-04-03T01:10:51;3.40;;;3.20;;
2049;SDS011;8478;49.208;8.806;2023-04-03T01:13:22;3.30;;;3.10;;
2049;SDS011;8478;49.208;8.806;2023-04-03T01:15:50;3.63;;;3.43;;
2049;SDS011;8478;49.208;8.806;2023-04-03T01:18:17;3.20;;;3.00;;
2049;SDS011;8478;49.208;8.806;2023-04-03T01:20:46;3.70;;;3.50;;
2049;SDS011;8478;49.208;8.806;2023-04-03T01:26:00;3.53;;;3.33;;
2049;SDS011;8478;49.208;8.806;2023-04-03T01:28:29;3.57;;;3.37;;
2049;SDS011;8478;49.208;8.806;2023-04-03T01:33:28;4.43;;;4.03;;
2049;SDS011;8478;49.208;8.806;2023-04-03T01:35:54;3.27;;;3.07;;
2049;SDS011;8478;49.208;8.806;2023-04-03T01:38:20;3.30;;;3.10;;
2049;SDS011;8478;49.208;8.806;2023-04-03T01:40:46;3.57;;;3.27;;
2049;SDS011;8478;49.208;8.806;2023-04-03T01:43:11;3.83;;;3.40;;
2049;SDS011;8478;49.208;8.806;2023-04-03T01:45:37;3.80;;;3.50;;
2049;SDS011;8478;49.208;8.806;2023-04-03T01:48:03;3.60;;;3.30;;
2049;SDS011;8478;49.208;8.806;2023-04-03T01:50:29;3.90;;;3.70;;
2049;SDS011;8478;49.208;8.806;2023-04-03T01:52:55;4.27;;;3.57;;
2049;SDS011;8478;49.208;8.806;2023-04-03T01:55:21;3.30;;;3.10;;
2049;SDS011;8478;49.208;8.806;2023-04-03T01:57:46;3.93;;;3.63;;
2049;SDS011;8478;49.208;8.806;2023-04-03T02:00:12;3.93;;;3.30;;
2049;SDS011;8478;49.208;8.806;2023-04-03T02:02:38;3.63;;;3.30;;
2049;SDS011;8478;49.208;8.806;2023-04-03T02:05:04;3.80;;;3.33;;
2049;SDS011;8478;49.208;8.806;2023-04-03T02:07:31;3.43;;;3.23;;
2049;SDS011;8478;49.208;8.806;2023-04-03T02:09:56;4.00;;;3.60;;
2049;SDS011;8478;49.208;8.806;2023-04-03T02:12:22;4.27;;;3.97;;
2049;SDS011;8478;49.208;8.806;2023-04-03T02:14:47;3.43;;;3.20;;
2049;SDS011;8478;49.208;8.806;2023-04-03T02:17:13;3.50;;;3.30;;
2049;SDS011;8478;49.208;8.806;2023-04-03T02:19:40;4.33;;;4.00;;
2049;SDS011;8478;49.208;8.806;2023-04-03T02:22:06;4.03;;;3.63;;
2049;SDS011;8478;49.208;8.806;2023-04-03T02:24:31;3.23;;;3.03;;
2049;SDS011;8478;49.208;8.806;2023-04-03T02:26:57;3.43;;;3.20;;
2049;SDS011;8478;49.208;8.806;2023-04-03T02:29:23;3.80;;;3.50;;
2049;SDS011;8478;49.208;8.806;2023-04-03T02:31:49;3.70;;;3.40;;
2049;SDS011;8478;49.208;8.806;2023-04-03T02:34:15;3.50;;;3.20;;
2049;SDS011;8478;49.208;8.806;2023-04-03T02:36:41;3.90;;;3.60;;
2049;SDS011;8478;49.208;8.806;2023-04-03T02:39:07;4.10;;;3.53;;
2049;SDS011;8478;49.208;8.806;2023-04-03T02:41:33;3.83;;;3.50;;
2049;SDS011;8478;49.208;8.806;2023-04-03T02:44:00;3.40;;;3.20;;
2049;SDS011;8478;49.208;8.806;2023-04-03T02:46:27;3.90;;;3.60;;
2049;SDS011;8478;49.208;8.806;2023-04-03T02:48:53;3.70;;;3.40;;
2049;SDS011;8478;49.208;8.806;2023-04-03T02:51:18;3.50;;;3.30;;
2049;SDS011;8478;49.208;8.806;2023-04-03T02:53:44;4.30;;;4.00;;
2049;SDS011;8478;49.208;8.806;2023-04-03T02:56:10;3.77;;;3.47;;
2049;SDS011;8478;49.208;8.806;2023-04-03T02:58:36;4.10;;;3.80;;
2049;SDS011;8478;49.208;8.806;2023-04-03T03:01:01;4.00;;;3.70;;
2049;SDS011;8478;49.208;8.806;2023-04-03T03:03:27;4.00;;;3.70;;
2049;SDS011;8478;49.208;8.806;2023-04-03T03:06:03;4.20;;;3.90;;
2049;SDS011;8478;49.208;8.806;2023-04-03T03:08:30;3.73;;;3.43;;
2049;SDS011;8478;49.208;8.806;2023-04-03T03:10:56;3.43;;;3.20;;
2049;SDS011;8478;49.208;8.806;2023-04-03T03:13:21;3.90;;;3.60;;
2049;SDS011;8478;49.208;8.806;2023-04-03T03:15:47;3.57;;;3.37;;
2049;SDS011;8478;49.208;8.806;2023-04-03T03:18:13;3.60;;;3.40;;
2049;SDS011;8478;49.208;8.806;2023-04-03T03:20:39;3.87;;;3.60;;
2049;SDS011;8478;49.208;8.806;2023-04-03T03:23:05;3.80;;;3.50;;
2049;SDS011;8478;49.208;8.806;2023-04-03T03:25:30;3.60;;;3.30;;
2049;SDS011;8478;49.208;8.806;2023-04-03T03:27:56;3.60;;;3.40;;
2049;SDS011;8478;49.208;8.806;2023-04-03T03:30:22;3.70;;;3.40;;
2049;SDS011;8478;49.208;8.806;2023-04-03T03:32:47;3.60;;;3.40;;
2049;SDS011;8478;49.208;8.806;2023-04-03T03:35:13;3.37;;;3.17;;
2049;SDS011;8478;49.208;8.806;2023-04-03T03:37:38;4.13;;;3.83;;
2049;SDS011;8478;49.208;8.806;2023-04-03T03:40:04;3.17;;;2.97;;
2049;SDS011;8478;49.208;8.806;2023-04-03T03:42:31;3.70;;;3.40;;
2049;SDS011;8478;49.208;8.806;2023-04-03T03:44:56;3.70;;;3.40;;
2049;SDS011;8478;49.208;8.806;2023-04-03T03:47:22;3.90;;;3.50;;
2049;SDS011;8478;49.208;8.806;2023-04-03T03:49:48;3.80;;;3.57;;
2049;SDS011;8478;49.208;8.806;2023-04-03T03:52:13;3.50;;;3.20;;
2049;SDS011;8478;49.208;8.806;2023-04-03T03:54:39;3.33;;;3.13;;
2049;SDS011;8478;49.208;8.806;2023-04-03T03:57:05;3.93;;;3.70;;
2049;SDS011;8478;49.208;8.806;2023-04-03T03:59:30;3.87;;;3.57;;
2049;SDS011;8478;49.208;8.806;2023-04-03T04:01:56;4.07;;;3.77;;
2049;SDS011;8478;49.208;8.806;2023-04-03T04:04:22;4.53;;;4.20;;
2049;SDS011;8478;49.208;8.806;2023-04-03T04:06:47;4.00;;;3.70;;
2049;SDS011;8478;49.208;8.806;2023-04-03T04:09:13;3.90;;;3.53;;
2049;SDS011;8478;49.208;8.806;2023-04-03T04:11:39;4.27;;;3.97;;
2049;SDS011;8478;49.208;8.806;2023-04-03T04:14:05;3.23;;;3.03;;
2049;SDS011;8478;49.208;8.806;2023-04-03T04:16:31;3.53;;;3.30;;
2049;SDS011;8478;49.208;8.806;2023-04-03T04:18:57;3.97;;;3.70;;
2049;SDS011;8478;49.208;8.806;2023-04-03T04:21:22;3.97;;;3.60;;
2049;SDS011;8478;49.208;8.806;2023-04-03T04:23:48;3.87;;;3.63;;
2049;SDS011;8478;49.208;8.806;2023-04-03T04:26:14;4.27;;;3.87;;
2049;SDS011;8478;49.208;8.806;2023-04-03T04:28:40;3.83;;;3.53;;
2049;SDS011;8478;49.208;8.806;2023-04-03T04:31:05;3.67;;;3.40;;
2049;SDS011;8478;49.208;8.806;2023-04-03T04:33:31;3.70;;;3.47;;
2049;SDS011;8478;49.208;8.806;2023-04-03T04:35:57;3.63;;;3.40;;
2049;SDS011;8478;49.208;8.806;2023-04-03T04:38:22;4.37;;;3.97;;
2049;SDS011;8478;49.208;8.806;2023-04-03T04:40:48;3.90;;;3.70;;
2049;SDS011;8478;49.208;8.806;2023-04-03T04:43:14;3.97;;;3.67;;
2049;SDS011;8478;49.208;8.806;2023-04-03T04:45:40;5.03;;;4.37;;
2049;SDS011;8478;49.208;8.806;2023-04-03T04:48:06;3.90;;;3.70;;
2049;SDS011;8478;49.208;8.806;2023-04-03T04:50:32;4.20;;;3.90;;
2049;SDS011;8478;49.208;8.806;2023-04-03T04:52:58;3.60;;;3.30;;
2049;SDS011;8478;49.208;8.806;2023-04-03T04:55:24;3.60;;;3.30;;
2049;SDS011;8478;49.208;8.806;2023-04-03T04:57:49;3.87;;;3.67;;
2049;SDS011;8478;49.208;8.806;2023-04-03T05:00:15;4.20;;;3.90;;
2049;SDS011;8478;49.208;8.806;2023-04-03T05:02:41;3.97;;;3.67;;
2049;SDS011;8478;49.208;8.806;2023-04-03T05:05:07;4.10;;;3.57;;
2049;SDS011;8478;49.208;8.806;2023-04-03T05:07:33;4.07;;;3.70;;
2049;SDS011;8478;49.208;8.806;2023-04-03T05:10:00;3.73;;;3.43;;
2049;SDS011;8478;49.208;8.806;2023-04-03T05:12:27;3.63;;;3.43;;
2049;SDS011;8478;49.208;8.806;2023-04-03T05:14:54;3.90;;;3.70;;
2049;SDS011;8478;49.208;8.806;2023-04-03T05:17:19;4.00;;;3.70;;
2049;SDS011;8478;49.208;8.806;2023-04-03T05:19:45;4.07;;;3.77;;
2049;SDS011;8478;49.208;8.806;2023-04-03T05:22:11;4.50;;;3.60;;
2049;SDS011;8478;49.208;8.806;2023-04-03T05:24:37;4.37;;;3.97;;
2049;SDS011;8478;49.208;8.806;2023-04-03T05:27:02;3.13;;;2.93;;
2049;SDS011;8478;49.208;8.806;2023-04-03T05:29:28;3.97;;;3.77;;
2049;SDS011;8478;49.208;8.806;2023-04-03T05:31:54;4.37;;;3.50;;
2049;SDS011;8478;49.208;8.806;2023-04-03T05:34:20;4.10;;;3.67;;
2049;SDS011;8478;49.208;8.806;2023-04-03T05:36:46;3.30;;;3.10;;
2049;SDS011;8478;49.208;8.806;2023-04-03T05:39:11;3.87;;;3.57;;
2049;SDS011;8478;49.208;8.806;2023-04-03T05:41:37;4.57;;;4.27;;
2049;SDS011;8478;49.208;8.806;2023-04-03T05:44:03;5.10;;;4.70;;
2049;SDS011;8478;49.208;8.806;2023-04-03T05:46:28;5.20;;;4.90;;
2049;SDS011;8478;49.208;8.806;2023-04-03T05:48:54;6.50;;;6.00;;
2049;SDS011;8478;49.208;8.806;2023-04-03T05:51:24;6.93;;;6.40;;
2049;SDS011;8478;49.208;8.806;2023-04-03T05:53:55;6.73;;;6.23;;
2049;SDS011;8478;49.208;8.806;2023-04-03T05:56:26;7.10;;;6.63;;
2049;SDS011;8478;49.208;8.806;2023-04-03T05:58:52;6.80;;;6.30;;
2049;SDS011;8478;49.208;8.806;2023-04-03T06:01:17;6.83;;;6.33;;
2049;SDS011;8478;49.208;8.806;2023-04-03T06:03:43;6.60;;;6.20;;
2049;SDS011;8478;49.208;8.806;2023-04-03T06:06:12;6.63;;;6.13;;
2049;SDS011;8478;49.208;8.806;2023-04-03T06:08:39;7.00;;;6.50;;
2049;SDS011;8478;49.208;8.806;2023-04-03T06:11:05;6.10;;;5.63;;
2049;SDS011;8478;49.208;8.806;2023-04-03T06:13:30;6.17;;;5.70;;
2049;SDS011;8478;49.208;8.806;2023-04-03T06:15:56;6.17;;;5.77;;
2049;SDS011;8478;49.208;8.806;2023-04-03T06:18:23;5.80;;;5.40;;
2049;SDS011;8478;49.208;8.806;2023-04-03T06:20:49;5.93;;;4.77;;
2049;SDS011;8478;49.208;8.806;2023-04-03T06:23:14;5.10;;;4.70;;
2049;SDS011;8478;49.208;8.806;2023-04-03T06:25:40;5.00;;;4.70;;
2049;SDS011;8478;49.208;8.806;2023-04-03T06:28:07;5.10;;;4.80;;
2049;SDS011;8478;49.208;8.806;2023-04-03T06:30:35;4.67;;;4.27;;
2049;SDS011;8478;49.208;8.806;2023-04-03T06:33:01;4.80;;;4.40;;
2049;SDS011;8478;49.208;8.806;2023-04-03T06:35:28;4.37;;;4.07;;
2049;SDS011;8478;49.208;8.806;2023-04-03T06:37:55;5.10;;;4.60;;
2049;SDS011;8478;49.208;8.806;2023-04-03T06:40:22;4.00;;;3.77;;
2049;SDS011;8478;49.208;8.806;2023-04-03T06:42:50;4.63;;;4.20;;
2049;SDS011;8478;49.208;8.806;2023-04-03T06:45:16;5.23;;;4.83;;
2049;SDS011;8478;49.208;8.806;2023-04-03T06:47:42;4.87;;;4.37;;
2049;SDS011;8478;49.208;8.806;2023-04-03T06:50:09;5.40;;;5.00;;
2049;SDS011;8478;49.208;8.806;2023-04-03T06:52:36;4.50;;;4.20;;
2049;SDS011;8478;49.208;8.806;2023-04-03T06:55:03;5.13;;;4.63;;
2049;SDS011;8478;49.208;8.806;2023-04-03T06:57:29;4.70;;;4.40;;
2049;SDS011;8478;49.208;8.806;2023-04-03T06:59:55;4.53;;;4.27;;
2049;SDS011;8478;49.208;8.806;2023-04-03T07:02:21;4.73;;;4.40;;
2049;SDS011;8478;49.208;8.806;2023-04-03T07:04:47;4.63;;;4.23;;
2049;SDS011;8478;49.208;8.806;2023-04-03T07:07:12;5.00;;;4.60;;
2049;SDS011;8478;49.208;8.806;2023-04-03T07:09:38;4.87;;;4.47;;
2049;SDS011;8478;49.208;8.806;2023-04-03T07:12:04;5.10;;;4.70;;
2049;SDS011;8478;49.208;8.806;2023-04-03T07:14:30;5.00;;;4.67;;
2049;SDS011;8478;49.208;8.806;2023-04-03T07:16:55;4.50;;;4.20;;
2049;SDS011;8478;49.208;8.806;2023-04-03T07:19:21;4.53;;;4.13;;
2049;SDS011;8478;49.208;8.806;2023-04-03T07:21:49;5.20;;;4.90;;
2049;SDS011;8478;49.208;8.806;2023-04-03T07:24:14;4.40;;;4.10;;
2049;SDS011;8478;49.208;8.806;2023-04-03T07:26:40;4.50;;;4.20;;
2049;SDS011;8478;49.208;8.806;2023-04-03T07:29:06;4.50;;;4.20;;
2049;SDS011;8478;49.208;8.806;2023-04-03T07:31:32;5.53;;;4.87;;
2049;SDS011;8478;49.208;8.806;2023-04-03T07:33:58;5.20;;;4.80;;
2049;SDS011;8478;49.208;8.806;2023-04-03T07:36:24;5.47;;;5.07;;
2049;SDS011;8478;49.208;8.806;2023-04-03T07:38:50;4.30;;;4.00;;
2049;SDS011;8478;49.208;8.806;2023-04-03T07:41:16;5.70;;;4.50;;
2049;SDS011;8478;49.208;8.806;2023-04-03T07:43:44;4.43;;;4.10;;
2049;SDS011;8478;49.208;8.806;2023-04-03T07:46:11;5.40;;;4.90;;
2049;SDS011;8478;49.208;8.806;2023-04-03T07:48:37;4.87;;;4.47;;
2049;SDS011;8478;49.208;8.806;2023-04-03T07:51:03;4.90;;;4.50;;
2049;SDS011;8478;49.208;8.806;2023-04-03T07:53:30;5.10;;;4.70;;
2049;SDS011;8478;49.208;8.806;2023-04-03T07:55:57;4.83;;;4.43;;
2049;SDS011;8478;49.208;8.806;2023-04-03T07:58:23;4.90;;;4.50;;
2049;SDS011;8478;49.208;8.806;2023-04-03T08:00:49;4.80;;;4.47;;
2049;SDS011;8478;49.208;8.806;2023-04-03T08:03:15;4.83;;;4.43;;
2049;SDS011;8478;49.208;8.806;2023-04-03T08:05:42;4.73;;;4.30;;
2049;SDS011;8478;49.208;8.806;2023-04-03T08:08:10;5.43;;;4.50;;
2049;SDS011;8478;49.208;8.806;2023-04-03T08:10:37;5.97;;;4.03;;
2049;SDS011;8478;49.208;8.806;2023-04-03T08:13:03;4.60;;;4.30;;
2049;SDS011;8478;49.208;8.806;2023-04-03T08:15:29;4.20;;;3.90;;
2049;SDS011;8478;49.208;8.806;2023-04-03T08:17:55;4.40;;;4.10;;
2049;SDS011;8478;49.208;8.806;2023-04-03T08:20:21;5.73;;;5.07;;
2049;SDS011;8478;49.208;8.806;2023-04-03T08:22:47;4.47;;;4.17;;
2049;SDS011;8478;49.208;8.806;2023-04-03T08:25:13;3.93;;;3.70;;
2049;SDS011;8478;49.208;8.806;2023-04-03T08:27:39;4.33;;;4.03;;
2049;SDS011;8478;49.208;8.806;2023-04-03T08:30:05;4.30;;;4.00;;
2049;SDS011;8478;49.208;8.806;2023-04-03T08:32:32;4.10;;;3.90;;
2049;SDS011;8478;49.208;8.806;2023-04-03T08:34:59;3.97;;;3.67;;
2049;SDS011;8478;49.208;8.806;2023-04-03T08:37:26;4.73;;;3.73;;
2049;SDS011;8478;49.208;8.806;2023-04-03T08:39:52;4.87;;;4.47;;
2049;SDS011;8478;49.208;8.806;2023-04-03T08:45:08;4.27;;;3.73;;
2049;SDS011;8478;49.208;8.806;2023-04-03T08:47:52;3.90;;;3.60;;
2049;SDS011;8478;49.208;8.806;2023-04-03T08:50:28;4.20;;;3.83;;
2049;SDS011;8478;49.208;8.806;2023-04-03T08:52:57;4.00;;;3.70;;
2049;SDS011;8478;49.208;8.806;2023-04-03T08:55:33;4.80;;;4.20;;
2049;SDS011;8478;49.208;8.806;2023-04-03T08:58:18;3.90;;;3.60;;
2049;SDS011;8478;49.208;8.806;2023-04-03T09:00:52;4.70;;;4.30;;
2049;SDS011;8478;49.208;8.806;2023-04-03T09:03:24;4.00;;;3.80;;
2049;SDS011;8478;49.208;8.806;2023-04-03T09:11:26;4.50;;;4.03;;
2049;SDS011;8478;49.208;8.806;2023-04-03T09:14:02;4.17;;;3.83;;
2049;SDS011;8478;49.208;8.806;2023-04-03T09:16:56;4.00;;;3.80;;
2049;SDS011;8478;49.208;8.806;2023-04-03T09:22:00;4.10;;;3.90;;
2049;SDS011;8478;49.208;8.806;2023-04-03T09:27:33;4.30;;;4.00;;
2049;SDS011;8478;49.208;8.806;2023-04-03T09:29:58;3.67;;;3.37;;
2049;SDS011;8478;49.208;8.806;2023-04-03T09:34:53;4.43;;;3.90;;
2049;SDS011;8478;49.208;8.806;2023-04-03T09:37:38;4.07;;;3.70;;
2049;SDS011;8478;49.208;8.806;2023-04-03T09:42:57;4.30;;;4.00;;
2049;SDS011;8478;49.208;8.806;2023-04-03T09:45:25;3.80;;;3.50;;
2049;SDS011;8478;49.208;8.806;2023-04-03T09:53:30;4.70;;;3.93;;
2049;SDS011;8478;49.208;8.806;2023-04-03T09:56:04;4.10;;;3.70;;
2049;SDS011;8478;49.208;8.806;2023-04-03T09:58:48;4.50;;;4.10;;
2049;SDS011;8478;49.208;8.806;2023-04-03T10:01:25;3.50;;;3.30;;
2049;SDS011;8478;49.208;8.806;2023-04-03T10:06:41;3.70;;;3.40;;
2049;SDS011;8478;49.208;8.806;2023-04-03T10:09:24;3.83;;;3.63;;
2049;SDS011;8478;49.208;8.806;2023-04-03T10:14:35;3.70;;;3.40;;
2049;SDS011;8478;49.208;8.806;2023-04-03T10:17:10;3.50;;;3.30;;
2049;SDS011;8478;49.208;8.806;2023-04-03T10:19:47;3.60;;;3.27;;
2049;SDS011;8478;49.208;8.806;2023-04-03T10:25:40;4.20;;;3.90;;
2049;SDS011;8478;49.208;8.806;2023-04-03T10:43:45;3.47;;;3.27;;
2049;SDS011;8478;49.208;8.806;2023-04-03T10:46:38;4.20;;;3.90;;
2049;SDS011;8478;49.208;8.806;2023-04-03T10:52:20;3.83;;;3.53;;
2049;SDS011;8478;49.208;8.806;2023-04-03T10:55:02;3.83;;;3.63;;
2049;SDS011;8478;49.208;8.806;2023-04-03T10:57:44;3.80;;;3.50;;
2049;SDS011;8478;49.208;8.806;2023-04-03T11:00:15;4.07;;;3.83;;
2049;SDS011;8478;49.208;8.806;2023-04-03T11:02:56;3.90;;;3.60;;
2049;SDS011;8478;49.208;8.806;2023-04-03T11:05:34;4.00;;;3.60;;
2049;SDS011;8478;49.208;8.806;2023-04-03T11:11:24;4.47;;;4.07;;
2049;SDS011;8478;49.208;8.806;2023-04-03T11:13:56;4.20;;;3.90;;
2049;SDS011;8478;49.208;8.806;2023-04-03T11:16:27;5.00;;;3.80;;
2049;SDS011;8478;49.208;8.806;2023-04-03T11:19:00;4.30;;;4.00;;
2049;SDS011;8478;49.208;8.806;2023-04-03T11:21:33;4.47;;;4.17;;
2049;SDS011;8478;49.208;8.806;2023-04-03T11:24:09;3.87;;;3.47;;
2049;SDS011;8478;49.208;8.806;2023-04-03T11:26:47;4.13;;;3.83;;
2049;SDS011;8478;49.208;8.806;2023-04-03T11:29:17;4.20;;;4.00;;
2049;SDS011;8478;49.208;8.806;2023-04-03T11:37:16;4.93;;;4.40;;
2049;SDS011;8478;49.208;8.806;2023-04-03T11:39:56;3.93;;;3.63;;
2049;SDS011;8478;49.208;8.806;2023-04-03T11:42:38;3.93;;;3.60;;
2049;SDS011;8478;49.208;8.806;2023-04-03T11:45:15;3.70;;;3.50;;
2049;SDS011;8478;49.208;8.806;2023-04-03T12:08:29;4.00;;;3.70;;
2049;SDS011;8478;49.208;8.806;2023-04-03T12:14:18;4.30;;;4.00;;
2049;SDS011;8478;49.208;8.806;2023-04-03T12:23:56;3.90;;;3.53;;
2049;SDS011;8478;49.208;8.806;2023-04-03T12:46:20;3.70;;;3.40;;
2049;SDS011;8478;49.208;8.806;2023-04-03T12:48:49;4.20;;;3.80;;
2049;SDS011;8478;49.208;8.806;2023-04-03T12:54:17;3.93;;;3.63;;
2049;SDS011;8478;49.208;8.806;2023-04-03T12:56:49;3.90;;;3.60;;
2049;SDS011;8478;49.208;8.806;2023-04-03T12:59:16;3.57;;;3.37;;
2049;SDS011;8478;49.208;8.806;2023-04-03T13:01:53;3.67;;;3.43;;
2049;SDS011;8478;49.208;8.806;2023-04-03T13:04:20;4.20;;;3.83;;
2049;SDS011;8478;49.208;8.806;2023-04-03T13:06:46;4.13;;;3.90;;
2049;SDS011;8478;49.208;8.806;2023-04-03T13:09:22;3.90;;;3.60;;
2049;SDS011;8478;49.208;8.806;2023-04-03T13:11:57;4.40;;;4.10;;
2049;SDS011;8478;49.208;8.806;2023-04-03T13:14:24;4.50;;;4.10;;
2049;SDS011;8478;49.208;8.806;2023-04-03T13:16:57;3.60;;;3.40;;
2049;SDS011;8478;49.208;8.806;2023-04-03T13:19:25;4.60;;;4.20;;
2049;SDS011;8478;49.208;8.806;2023-04-03T13:21:56;4.13;;;3.77;;
2049;SDS011;8478;49.208;8.806;2023-04-03T13:24:28;4.57;;;4.17;;
2049;SDS011;8478;49.208;8.806;2023-04-03T13:26:56;4.10;;;3.70;;
2049;SDS011;8478;49.208;8.806;2023-04-03T13:29:23;4.00;;;3.70;;
2049;SDS011;8478;49.208;8.806;2023-04-03T13:31:53;5.80;;;4.00;;
2049;SDS011;8478;49.208;8.806;2023-04-03T13:34:21;4.40;;;4.00;;
2049;SDS011;8478;49.208;8.806;2023-04-03T13:36:56;4.30;;;3.90;;
2049;SDS011;8478;49.208;8.806;2023-04-03T13:39:25;4.00;;;3.70;;
2049;SDS011;8478;49.208;8.806;2023-04-03T13:41:57;4.20;;;3.80;;
2049;SDS011;8478;49.208;8.806;2023-04-03T13:44:29;3.93;;;3.63;;
2049;SDS011;8478;49.208;8.806;2023-04-03T13:49:41;4.30;;;3.90;;
2049;SDS011;8478;49.208;8.806;2023-04-03T13:52:21;3.87;;;3.57;;
2049;SDS011;8478;49.208;8.806;2023-04-03T13:55:03;4.30;;;4.00;;
2049;SDS011;8478;49.208;8.806;2023-04-03T13:57:51;4.37;;;3.97;;
2049;SDS011;8478;49.208;8.806;2023-04-03T14:03:57;4.30;;;3.90;;
2049;SDS011;8478;49.208;8.806;2023-04-03T14:06:25;4.10;;;3.80;;
2049;SDS011;8478;49.208;8.806;2023-04-03T14:08:51;3.15;;;2.85;;
2049;SDS011;8478;49.208;8.806;2023-04-03T14:11:28;4.00;;;3.70;;
2049;SDS011;8478;49.208;8.806;2023-04-03T14:13:56;4.03;;;3.73;;
2049;SDS011;8478;49.208;8.806;2023-04-03T14:16:26;3.87;;;3.57;;
2049;SDS011;8478;49.208;8.806;2023-04-03T14:18:56;3.77;;;3.47;;
2049;SDS011;8478;49.208;8.806;2023-04-03T14:21:22;3.73;;;3.43;;
2049;SDS011;8478;49.208;8.806;2023-04-03T14:23:48;4.30;;;3.90;;
2049;SDS011;8478;49.208;8.806;2023-04-03T14:26:18;3.67;;;3.40;;
2049;SDS011;8478;49.208;8.806;2023-04-03T14:28:48;3.70;;;3.40;;
2049;SDS011;8478;49.208;8.806;2023-04-03T14:31:18;3.63;;;3.33;;
2049;SDS011;8478;49.208;8.806;2023-04-03T14:33:45;3.40;;;3.17;;
2049;SDS011;8478;49.208;8.806;2023-04-03T14:36:13;4.23;;;3.97;;
2049;SDS011;8478;49.208;8.806;2023-04-03T14:38:41;3.57;;;3.37;;
2049;SDS011;8478;49.208;8.806;2023-04-03T14:41:07;3.80;;;3.40;;
2049;SDS011;8478;49.208;8.806;2023-04-03T14:43:35;4.00;;;3.80;;
2049;SDS011;8478;49.208;8.806;2023-04-03T14:46:01;3.63;;;3.40;;
2049;SDS011;8478;49.208;8.806;2023-04-03T14:48:27;4.07;;;3.77;;
2049;SDS011;8478;49.208;8.806;2023-04-03T14:50:55;3.57;;;3.37;;
2049;SDS011;8478;49.208;8.806;2023-04-03T14:53:21;4.33;;;3.97;;
2049;SDS011;8478;49.208;8.806;2023-04-03T14:55:51;3.80;;;3.53;;
2049;SDS011;8478;49.208;8.806;2023-04-03T14:58:19;3.60;;;3.30;;
2049;SDS011;8478;49.208;8.806;2023-04-03T15:00:45;3.73;;;3.53;;
2049;SDS011;8478;49.208;8.806;2023-04-03T15:03:15;3.93;;;3.53;;
2049;SDS011;8478;49.208;8.806;2023-04-03T15:05:43;4.07;;;3.77;;
2049;SDS011;8478;49.208;8.806;2023-04-03T15:08:28;3.83;;;3.57;;
2049;SDS011;8478;49.208;8.806;2023-04-03T15:10:54;3.57;;;3.37;;
2049;SDS011;8478;49.208;8.806;2023-04-03T15:13:21;3.97;;;3.60;;
2049;SDS011;8478;49.208;8.806;2023-04-03T15:15:47;4.10;;;3.80;;
2049;SDS011;8478;49.208;8.806;2023-04-03T15:18:24;3.80;;;3.60;;
2049;SDS011;8478;49.208;8.806;2023-04-03T15:20:51;4.03;;;3.83;;
2049;SDS011;8478;49.208;8.806;2023-04-03T15:23:20;3.83;;;3.53;;
2049;SDS011;8478;49.208;8.806;2023-04-03T15:25:51;3.93;;;3.63;;
2049;SDS011;8478;49.208;8.806;2023-04-03T15:28:20;4.70;;;4.07;;
2049;SDS011;8478;49.208;8.806;2023-04-03T15:30:56;4.77;;;4.00;;
2049;SDS011;8478;49.208;8.806;2023-04-03T15:33:22;3.60;;;3.37;;
2049;SDS011;8478;49.208;8.806;2023-04-03T15:35:48;4.03;;;3.60;;
2049;SDS011;8478;49.208;8.806;2023-04-03T15:38:14;3.50;;;3.30;;
2049;SDS011;8478;49.208;8.806;2023-04-03T15:40:40;3.73;;;3.43;;
2049;SDS011;8478;49.208;8.806;2023-04-03T15:43:06;3.70;;;3.40;;
2049;SDS011;8478;49.208;8.806;2023-04-03T15:45:32;3.50;;;3.20;;
2049;SDS011;8478;49.208;8.806;2023-04-03T15:47:59;4.20;;;3.90;;
2049;SDS011;8478;49.208;8.806;2023-04-03T15:50:26;3.73;;;3.53;;
2049;SDS011;8478;49.208;8.806;2023-04-03T15:52:52;3.80;;;3.47;;
2049;SDS011;8478;49.208;8.806;2023-04-03T15:55:23;3.47;;;3.27;;
2049;SDS011;8478;49.208;8.806;2023-04-03T15:57:50;3.73;;;3.43;;
2049;SDS011;8478;49.208;8.806;2023-04-03T16:00:17;4.23;;;3.93;;
2049;SDS011;8478;49.208;8.806;2023-04-03T16:02:43;3.70;;;3.50;;
2049;SDS011;8478;49.208;8.806;2023-04-03T16:05:11;12.10;;;3.73;;
2049;SDS011;8478;49.208;8.806;2023-04-03T16:07:38;3.73;;;3.53;;
2049;SDS011;8478;49.208;8.806;2023-04-03T16:10:05;4.03;;;3.73;;
2049;SDS011;8478;49.208;8.806;2023-04-03T16:12:32;4.33;;;4.03;;
2049;SDS011;8478;49.208;8.806;2023-04-03T16:14:57;3.60;;;3.30;;
2049;SDS011;8478;49.208;8.806;2023-04-03T16:17:23;3.67;;;3.40;;
2049;SDS011;8478;49.208;8.806;2023-04-03T16:19:51;3.77;;;3.50;;
2049;SDS011;8478;49.208;8.806;2023-04-03T16:22:16;3.87;;;3.57;;
2049;SDS011;8478;49.208;8.806;2023-04-03T16:24:42;3.60;;;3.30;;
2049;SDS011;8478;49.208;8.806;2023-04-03T16:27:08;3.73;;;3.53;;
2049;SDS011;8478;49.208;8.806;2023-04-03T16:29:34;3.30;;;3.10;;
2049;SDS011;8478;49.208;8.806;2023-04-03T16:32:00;3.20;;;3.00;;
2049;SDS011;8478;49.208;8.806;2023-04-03T16:34:27;3.80;;;3.50;;
2049;SDS011;8478;49.208;8.806;2023-04-03T16:36:55;3.97;;;3.67;;
2049;SDS011;8478;49.208;8.806;2023-04-03T16:39:20;4.57;;;4.27;;
2049;SDS011;8478;49.208;8.806;2023-04-03T16:41:46;3.73;;;3.43;;
2049;SDS011;8478;49.208;8.806;2023-04-03T16:44:12;3.73;;;3.43;;
2049;SDS011;8478;49.208;8.806;2023-04-03T16:46:38;4.37;;;3.97;;
2049;SDS011;8478;49.208;8.806;2023-04-03T16:49:04;4.70;;;4.40;;
2049;SDS011;8478;49.208;8.806;2023-04-03T16:51:30;4.30;;;4.00;;
2049;SDS011;8478;49.208;8.806;2023-04-03T16:53:56;4.23;;;3.93;;
2049;SDS011;8478;49.208;8.806;2023-04-03T16:56:22;3.93;;;3.63;;
2049;SDS011;8478;49.208;8.806;2023-04-03T16:58:48;4.77;;;4.33;;
2049;SDS011;8478;49.208;8.806;2023-04-03T17:01:15;4.30;;;4.00;;
2049;SDS011;8478;49.208;8.806;2023-04-03T17:03:42;4.37;;;3.97;;
2049;SDS011;8478;49.208;8.806;2023-04-03T17:06:09;3.93;;;3.63;;
2049;SDS011;8478;49.208;8.806;2023-04-03T17:08:41;4.30;;;3.90;;
2049;SDS011;8478;49.208;8.806;2023-04-03T17:11:08;4.47;;;4.07;;
2049;SDS011;8478;49.208;8.806;2023-04-03T17:13:33;4.47;;;3.80;;
2049;SDS011;8478;49.208;8.806;2023-04-03T17:16:00;3.60;;;3.40;;
2049;SDS011;8478;49.208;8.806;2023-04-03T17:18:29;4.20;;;3.80;;
2049;SDS011;8478;49.208;8.806;2023-04-03T17:20:56;4.73;;;4.30;;
2049;SDS011;8478;49.208;8.806;2023-04-03T17:23:23;4.60;;;4.30;;
2049;SDS011;8478;49.208;8.806;2023-04-03T17:25:50;5.47;;;5.00;;
2049;SDS011;8478;49.208;8.806;2023-04-03T17:28:16;4.80;;;4.40;;